Terminal Aerodrome Forecast
Issued by NWS Glasgow, MT

Home | Current Version | Previous Version | Text Only | Print | Product List | Glossary On
Versions: 1 2 3 4 5 6 7 8 9 10 11 12 13 14 15 16 17 18 19 20 21
000
FTUS45 KGGW 281700
TAFGGW
TAF
KGGW 281736Z 2818/2918 14008KT P6SM SCT100
     FM290300 34018G25KT P6SM VCSH OVC050
     FM290600 33015KT 5SM -SN BLSN OVC015
     FM291500 33018KT P6SM VCSH BKN030=

USA.gov is the U.S. government's official web portal to all federal, state and local government web resources and services.